createdAt,value
2023-07-25T00:04:26.282Z,98282.59
2023-07-25T00:09:28.411Z,98274.41
2023-07-25T00:14:30.579Z,98293.56
2023-07-25T00:19:32.726Z,98294.13
2023-07-25T00:24:34.849Z,98283.75
2023-07-25T00:29:37.061Z,98294.50
2023-07-25T00:34:39.198Z,98263.91
2023-07-25T00:39:41.383Z,98250.25
2023-07-25T00:44:43.470Z,98238.25
2023-07-25T00:49:46.821Z,98244.56
2023-07-25T00:54:51.828Z,98241.91
2023-07-25T00:59:54.043Z,98232.25
2023-07-25T01:04:56.484Z,98219.66
2023-07-25T01:09:58.788Z,98229.84
2023-07-25T01:15:00.997Z,98226.88
2023-07-25T01:20:09.439Z,98239.78
2023-07-25T01:25:11.995Z,98238.41
2023-07-25T01:30:14.086Z,98234.19
2023-07-25T01:35:16.229Z,98232.44
2023-07-25T01:40:18.499Z,98235.16
2023-07-25T01:45:21.729Z,98227.63
2023-07-25T01:50:24.132Z,98251.59
2023-07-25T01:55:26.305Z,98256.16
2023-07-25T02:00:29.495Z,98261.97
2023-07-25T02:05:31.655Z,98253.63
2023-07-25T02:10:34.047Z,98285.00
2023-07-25T02:15:37.640Z,98295.09
2023-07-25T02:20:39.951Z,98244.19
2023-07-25T02:25:42.970Z,98286.28
2023-07-25T02:30:47.464Z,98265.59
2023-07-25T02:35:49.714Z,98257.13
2023-07-25T02:40:51.917Z,98265.97
2023-07-25T02:45:54.291Z,98246.09
2023-07-25T02:50:56.469Z,98250.78
2023-07-25T02:55:58.555Z,98251.84
2023-07-25T03:01:01.294Z,98262.00
2023-07-25T03:06:03.576Z,98253.16
2023-07-25T03:11:05.864Z,98251.03
2023-07-25T03:16:08.526Z,98263.88
2023-07-25T03:21:10.769Z,98229.47
2023-07-25T03:26:12.987Z,98217.16
2023-07-25T03:31:15.134Z,98235.06
2023-07-25T03:36:17.242Z,98227.84
2023-07-25T03:41:19.380Z,98237.13
2023-07-25T03:46:21.614Z,98236.03
2023-07-25T03:51:24.713Z,98236.19
2023-07-25T03:56:26.913Z,98234.09
2023-07-25T04:01:29.552Z,98235.75
2023-07-25T04:06:32.070Z,98235.69
2023-07-25T04:11:34.472Z,98237.69
2023-07-25T04:16:36.793Z,98243.78
2023-07-25T04:21:39.137Z,98254.09
2023-07-25T04:26:41.335Z,98265.13
2023-07-25T04:31:43.665Z,98252.69
2023-07-25T04:36:45.928Z,98265.50
2023-07-25T04:41:48.086Z,98234.44
2023-07-25T04:46:50.307Z,98251.03
2023-07-25T04:51:52.542Z,98245.19
2023-07-25T04:56:54.797Z,98255.50
2023-07-25T05:01:57.026Z,98248.28
2023-07-25T05:06:59.363Z,98228.22
2023-07-25T05:12:01.611Z,98224.72
2023-07-25T05:17:03.993Z,98249.25
2023-07-25T05:22:06.256Z,98256.78
2023-07-25T05:27:08.487Z,98252.19
2023-07-25T05:32:10.743Z,98263.47
2023-07-25T05:37:12.885Z,98269.69
2023-07-25T05:42:15.188Z,98262.72
2023-07-25T05:47:17.300Z,98265.41
2023-07-25T05:52:19.431Z,98268.09
2023-07-25T05:57:21.728Z,98266.19
2023-07-25T06:02:23.897Z,98279.13
2023-07-25T06:07:26.019Z,98272.25
2023-07-25T06:12:28.280Z,98273.59
2023-07-25T06:17:30.856Z,98250.22
2023-07-25T06:22:33.004Z,98278.31
2023-07-25T06:27:35.401Z,98289.44
2023-07-25T06:32:39.112Z,98277.28
2023-07-25T06:37:41.255Z,98272.06
2023-07-25T06:42:43.559Z,98280.16
2023-07-25T06:47:48.193Z,98286.13
2023-07-25T06:52:50.493Z,98278.78
2023-07-25T06:57:52.740Z,98273.28
2023-07-25T07:02:56.168Z,98270.31
2023-07-25T07:07:59.626Z,98289.78
2023-07-25T07:13:01.771Z,98288.81
2023-07-25T07:18:04.042Z,98288.88
2023-07-25T07:23:06.667Z,98304.78
2023-07-25T07:28:08.869Z,98292.44
2023-07-25T07:33:11.077Z,98297.06
2023-07-25T07:38:13.563Z,98287.44
2023-07-25T07:43:16.945Z,98288.00
2023-07-25T07:48:19.106Z,98291.06
2023-07-25T07:53:21.351Z,98292.75
2023-07-25T07:58:23.591Z,98286.06
2023-07-25T08:03:25.789Z,98293.66
2023-07-25T08:08:27.896Z,98293.94
2023-07-25T08:13:30.199Z,98297.53
2023-07-25T08:18:32.444Z,98300.84
2023-07-25T08:23:34.681Z,98285.75
2023-07-25T08:28:37.012Z,98303.13
2023-07-25T08:33:39.333Z,98297.59
2023-07-25T08:38:43.014Z,98288.13
2023-07-25T08:43:45.477Z,98288.50
2023-07-25T08:48:49.866Z,98286.50
2023-07-25T08:54:03.928Z,98292.66
2023-07-25T08:59:06.764Z,98291.91
2023-07-25T09:04:10.460Z,98278.28
2023-07-25T09:09:12.877Z,98289.94
2023-07-25T09:14:15.264Z,98301.06
2023-07-25T09:19:17.783Z,98300.38
2023-07-25T09:24:20.063Z,98293.00
2023-07-25T09:29:28.081Z,98282.03
2023-07-25T09:34:30.343Z,98275.81
2023-07-25T09:39:34.992Z,98274.88
2023-07-25T09:44:37.114Z,98285.59
2023-07-25T09:49:39.272Z,98274.44
2023-07-25T09:54:42.040Z,98273.94
2023-07-25T09:59:44.947Z,98262.47
2023-07-25T10:04:48.417Z,98251.09
2023-07-25T10:09:51.923Z,98251.66
2023-07-25T10:14:56.414Z,98249.84
2023-07-25T10:19:58.582Z,98258.09
2023-07-25T10:25:00.853Z,98252.34
2023-07-25T10:30:04.112Z,98261.28
2023-07-25T10:35:08.821Z,98254.38
2023-07-25T10:40:18.025Z,98269.66
2023-07-25T10:45:30.623Z,98259.88
2023-07-25T10:50:53.243Z,98274.53
2023-07-25T10:56:07.956Z,98259.44
2023-07-25T11:01:36.211Z,98249.50
2023-07-25T11:06:39.824Z,98240.06
2023-07-25T11:11:46.594Z,98249.16
2023-07-25T11:16:51.927Z,98250.63
2023-07-25T11:21:54.245Z,98228.31
2023-07-25T11:26:56.363Z,98234.28
2023-07-25T11:32:02.906Z,98242.44
2023-07-25T11:37:10.875Z,98229.81
2023-07-25T11:42:13.084Z,98226.19
2023-07-25T11:47:15.448Z,98230.09
2023-07-25T11:52:18.293Z,98220.69
2023-07-25T11:57:20.508Z,98215.34
2023-07-25T12:02:25.893Z,98205.22
2023-07-25T12:07:28.157Z,98203.59
2023-07-25T12:12:30.453Z,98199.88
2023-07-25T12:17:43.025Z,98200.25
2023-07-25T12:22:48.886Z,98202.75
2023-07-25T12:27:53.726Z,98185.47
2023-07-25T12:32:56.118Z,98180.88
2023-07-25T12:37:58.876Z,98184.97
2023-07-25T12:43:01.058Z,98181.56
2023-07-25T12:48:04.956Z,98179.00
2023-07-25T12:53:07.781Z,98173.00
2023-07-25T12:58:10.007Z,98174.22
2023-07-25T13:03:13.762Z,98175.94
2023-07-25T13:08:16.565Z,98185.41
2023-07-25T13:13:18.692Z,98188.34
2023-07-25T13:18:20.786Z,98174.72
2023-07-25T13:23:22.973Z,98174.78
2023-07-25T13:28:26.173Z,98179.25
2023-07-25T13:33:28.997Z,98168.66
2023-07-25T13:38:31.218Z,98167.34
2023-07-25T13:43:33.392Z,98150.91
2023-07-25T13:48:35.560Z,98165.13
2023-07-25T13:53:37.648Z,98160.22
2023-07-25T13:58:39.929Z,98148.00
2023-07-25T14:03:42.184Z,98149.00
2023-07-25T14:08:44.698Z,98142.72
2023-07-25T14:13:47.202Z,98148.94
2023-07-25T14:18:49.357Z,98139.50
2023-07-25T14:23:51.630Z,98155.94
2023-07-25T14:28:53.827Z,98146.66
2023-07-25T14:33:57.200Z,98133.16
2023-07-25T14:38:59.426Z,98154.78
2023-07-25T14:44:01.591Z,98148.41
2023-07-25T14:49:03.909Z,98136.06
2023-07-25T14:54:06.041Z,98134.94
2023-07-25T14:59:08.225Z,98137.09
2023-07-25T15:04:10.546Z,98123.50
2023-07-25T15:09:12.817Z,98124.28
2023-07-25T15:14:15.028Z,98128.31
2023-07-25T15:19:17.244Z,98135.53
2023-07-25T15:24:19.540Z,98134.53
2023-07-25T15:29:21.880Z,98142.06
2023-07-25T15:34:24.540Z,98136.88
2023-07-25T15:39:26.794Z,98148.84
2023-07-25T15:44:29.367Z,98150.25
2023-07-25T15:49:31.515Z,98145.22
2023-07-25T15:54:33.799Z,98160.72
2023-07-25T15:59:36.101Z,98154.47
2023-07-25T16:04:38.475Z,98156.63
2023-07-25T16:09:43.505Z,98164.38
2023-07-25T16:14:46.761Z,98153.09
2023-07-25T16:19:48.841Z,98154.47
2023-07-25T16:24:51.094Z,98127.31
2023-07-25T16:29:53.370Z,98169.09
2023-07-25T16:34:55.657Z,98172.78
2023-07-25T16:39:57.840Z,98165.03
2023-07-25T16:45:01.418Z,98170.66
2023-07-25T16:50:07.132Z,98163.22
2023-07-25T16:55:11.044Z,98152.19
2023-07-25T17:00:13.636Z,98164.53
2023-07-25T17:05:15.834Z,98151.78
2023-07-25T17:10:18.064Z,98162.75
2023-07-25T17:15:20.384Z,98138.13
2023-07-25T17:20:26.065Z,98124.47
2023-07-25T17:25:28.350Z,98144.69
2023-07-25T17:30:30.493Z,98143.84
2023-07-25T17:35:38.104Z,98146.50
2023-07-25T17:40:43.884Z,98149.38
2023-07-25T17:45:46.248Z,98155.44
2023-07-25T17:50:51.622Z,98148.13
2023-07-25T17:55:55.921Z,98134.41
2023-07-25T18:00:58.436Z,98141.56
2023-07-25T18:06:00.628Z,98134.97
2023-07-25T18:11:02.853Z,98145.69
2023-07-25T18:16:05.218Z,98157.53
2023-07-25T18:21:10.098Z,98141.56
2023-07-25T18:26:12.495Z,98165.28
2023-07-25T18:31:14.653Z,98158.56
2023-07-25T18:36:16.907Z,98165.38
2023-07-25T18:41:19.099Z,98172.91
2023-07-25T18:46:21.261Z,98175.03
2023-07-25T18:51:23.552Z,98151.09
2023-07-25T18:56:25.717Z,98166.34
2023-07-25T19:01:27.928Z,98159.53
2023-07-25T19:06:32.102Z,98165.66
2023-07-25T19:11:34.598Z,98151.81
2023-07-25T19:16:37.175Z,98171.91
2023-07-25T19:21:40.623Z,98181.41
2023-07-25T19:26:42.818Z,98164.69
2023-07-25T19:31:45.099Z,98163.06
2023-07-25T19:36:47.354Z,98164.94
2023-07-25T19:41:51.610Z,98165.63
2023-07-25T19:46:56.128Z,98155.72
2023-07-25T19:51:59.461Z,98133.94
2023-07-25T19:57:02.625Z,98105.75
2023-07-25T20:02:05.144Z,98119.47
2023-07-25T20:07:07.670Z,98121.44
2023-07-25T20:12:10.745Z,98113.56
2023-07-25T20:17:12.985Z,98113.88
2023-07-25T20:22:15.234Z,98112.25
2023-07-25T20:27:18.282Z,98109.88
2023-07-25T20:32:20.776Z,98103.94
2023-07-25T20:37:23.101Z,98093.41
2023-07-25T20:42:25.457Z,98107.69
2023-07-25T20:47:27.819Z,98114.09
2023-07-25T20:52:30.157Z,98115.72
2023-07-25T20:57:32.409Z,98111.66
2023-07-25T21:02:34.711Z,98112.19
2023-07-25T21:07:38.369Z,98103.03
2023-07-25T21:12:40.753Z,98109.72
2023-07-25T21:17:43.106Z,98105.09
2023-07-25T21:22:45.352Z,98105.31
2023-07-25T21:27:47.619Z,98086.16
2023-07-25T21:32:49.909Z,98080.25
2023-07-25T21:37:52.476Z,98070.81
2023-07-25T21:42:54.730Z,98066.00
2023-07-25T21:47:56.957Z,98068.72
2023-07-25T21:52:59.210Z,98065.25
2023-07-25T21:58:01.483Z,98069.06
2023-07-25T22:03:03.856Z,98065.31
2023-07-25T22:08:06.069Z,98066.94
2023-07-25T22:13:08.905Z,98063.19
2023-07-25T22:18:11.028Z,98059.66
2023-07-25T22:23:13.216Z,98061.63
2023-07-25T22:28:15.460Z,98058.66
2023-07-25T22:33:17.647Z,98064.59
2023-07-25T22:38:19.795Z,98050.59
2023-07-25T22:43:22.032Z,98052.50
2023-07-25T22:48:25.235Z,98053.38
2023-07-25T22:53:27.301Z,98049.34
2023-07-25T22:58:30.099Z,98041.25
2023-07-25T23:03:36.131Z,98040.47
2023-07-25T23:08:38.419Z,98034.88
2023-07-25T23:13:40.573Z,98034.84
2023-07-25T23:18:42.842Z,98047.78
2023-07-25T23:23:45.019Z,98051.81
2023-07-25T23:28:47.202Z,98051.81
2023-07-25T23:33:49.407Z,98045.91
2023-07-25T23:38:51.536Z,98038.38
2023-07-25T23:43:53.589Z,98045.09
2023-07-25T23:48:55.668Z,98041.34
2023-07-25T23:53:58.286Z,98034.88
2023-07-25T23:59:01.095Z,98025.47
